Time;durP1;ratioP1;P1;durP2;ratioP2;P2;SDS_P1;SDS_P2;PMS_P1;PMS_P2;Temp;Humidity;BMP_temperature;BMP_pressure;BME280_temperature;BME280_humidity;BME280_pressure;Samples;Min_cycle;Max_cycle;Signal;HPM_P1;HPM_P2
2022/02/01 00:03:33;;;;;;;;;28.00;22.00;;;;;3.05;62.74;102593.78;5066531;28;49713;-69
2022/02/01 00:06:20;;;;;;;;;26.50;21.25;;;;;3.17;63.06;102620.69;5070915;28;49781;-69
2022/02/01 00:08:55;;;;;;;;;21.50;17.50;;;;;3.33;62.53;102654.00;5072382;28;50022;-69
2022/02/01 00:35:21;;;;;;;;;14.00;12.75;;;;;3.36;62.49;102630.88;5072026;28;49658;-69
2022/02/01 00:37:56;;;;;;;;;17.50;15.25;;;;;3.04;63.10;102580.69;5072065;28;49685;-68
2022/02/01 00:40:22;;;;;;;;;15.25;12.00;;;;;3.09;63.60;102593.25;5071673;28;49871;-68
2022/02/01 00:42:47;;;;;;;;;16.00;16.00;;;;;3.30;62.85;102648.56;5065123;28;49822;-68
2022/02/01 00:45:13;;;;;;;;;20.75;16.00;;;;;3.28;62.82;102633.63;5071385;27;49620;-68
2022/02/01 00:47:41;;;;;;;;;18.25;13.25;;;;;3.12;63.03;102610.75;5071893;28;49992;-69
2022/02/01 00:50:08;;;;;;;;;13.25;12.25;;;;;3.01;62.69;102599.53;5071437;28;49872;-68
2022/02/01 00:52:34;;;;;;;;;15.75;12.00;;;;;3.06;62.84;102605.06;5071631;28;49926;-68
2022/02/01 00:54:59;;;;;;;;;15.50;14.75;;;;;3.22;63.15;102648.72;5071688;28;49760;-69
2022/02/01 00:57:25;;;;;;;;;17.25;16.00;;;;;3.09;62.37;102621.81;5071788;28;49683;-69
2022/02/01 00:59:50;;;;;;;;;17.50;15.50;;;;;3.15;62.49;102622.28;5071309;28;51032;-69
2022/02/01 01:02:15;;;;;;;;;13.25;12.00;;;;;2.76;63.07;102577.56;5070296;27;49703;-70
2022/02/01 01:04:41;;;;;;;;;14.75;14.75;;;;;3.44;63.45;102681.72;5071357;27;50119;-69
2022/02/01 01:07:07;;;;;;;;;14.25;13.50;;;;;3.50;62.36;102683.00;5071744;28;49827;-68
2022/02/01 01:09:32;;;;;;;;;15.00;12.50;;;;;3.48;62.40;102674.19;5071234;28;50117;-69
2022/02/01 01:11:58;;;;;;;;;13.25;12.25;;;;;3.29;62.37;102625.09;5071337;27;49766;-69
2022/02/01 01:44:36;;;;;;;;;11.25;11.00;;;;;3.20;62.56;102577.63;5070651;28;49769;-69
2022/02/01 01:55:16;;;;;;;;;11.50;10.75;;;;;3.02;62.64;102532.97;5064995;28;49877;-69
2022/02/01 01:57:42;;;;;;;;;11.75;8.50;;;;;3.70;62.66;102643.94;5069589;28;49755;-69
2022/02/01 02:00:19;;;;;;;;;11.50;11.50;;;;;3.29;62.33;102552.41;5070634;28;49859;-68
2022/02/01 02:02:44;;;;;;;;;12.00;9.25;;;;;3.72;62.05;102614.69;5070592;28;49740;-69
2022/02/01 02:05:10;;;;;;;;;13.75;13.25;;;;;3.93;61.71;102632.72;5070693;28;50023;-69
2022/02/01 02:07:35;;;;;;;;;12.75;10.25;;;;;3.69;62.18;102596.28;5070899;27;50074;-69
2022/02/01 02:10:02;;;;;;;;;14.75;13.00;;;;;3.95;62.01;102638.94;5069389;28;50087;-69
2022/02/01 02:12:55;;;;;;;;;14.25;10.25;;;;;3.98;62.37;102632.28;5070724;28;50436;-69
2022/02/01 02:15:43;;;;;;;;;9.50;9.50;;;;;3.89;62.64;102594.31;5073793;27;49700;-69
2022/02/01 02:18:08;;;;;;;;;9.50;9.50;;;;;4.00;61.74;102620.31;5072846;28;50052;-69
2022/02/01 02:20:53;;;;;;;;;12.75;12.50;;;;;4.12;62.05;102637.63;5074208;28;49683;-69
2022/02/01 02:23:19;;;;;;;;;19.00;17.00;;;;;3.91;61.62;102601.41;5073870;28;51152;-70
2022/02/01 02:25:45;;;;;;;;;23.75;17.00;;;;;4.10;61.96;102619.31;5073952;28;49743;-70
2022/02/01 02:28:14;;;;;;;;;10.00;9.00;;;;;4.34;61.42;102641.06;5073743;28;49721;-69
2022/02/01 02:30:42;;;;;;;;;14.00;10.00;;;;;4.30;61.95;102631.25;5073755;28;50043;-69
2022/02/01 02:33:11;;;;;;;;;13.00;12.00;;;;;4.27;61.62;102624.13;5073800;28;50948;-69
2022/02/01 02:36:19;;;;;;;;;9.00;7.75;;;;;4.17;61.32;102598.22;5073690;28;49565;-70
2022/02/01 02:38:54;;;;;;;;;17.00;14.00;;;;;4.40;61.47;102619.84;5069207;28;49795;-69
2022/02/01 02:41:35;;;;;;;;;14.00;10.25;;;;;4.54;61.53;102640.91;5068663;28;49669;-69
2022/02/01 02:46:48;;;;;;;;;13.25;10.00;;;;;4.48;61.55;102613.53;5073742;28;49813;-69
2022/02/01 02:49:16;;;;;;;;;16.75;12.50;;;;;4.39;61.72;102581.63;5073558;27;49747;-69
2022/02/01 02:51:42;;;;;;;;;11.50;9.75;;;;;4.57;62.31;102598.59;5073758;28;49806;-69
2022/02/01 02:54:10;;;;;;;;;9.00;9.00;;;;;4.52;62.28;102571.31;5072157;28;50189;-69
2022/02/01 02:56:47;;;;;;;;;9.25;9.25;;;;;4.55;62.33;102563.78;5073546;28;50116;-69
2022/02/01 02:59:13;;;;;;;;;13.25;11.00;;;;;4.70;62.83;102583.09;5073352;28;50110;-69
2022/02/01 03:01:40;;;;;;;;;9.50;9.50;;;;;4.55;62.48;102567.28;5072307;28;49807;-69
2022/02/01 03:04:05;;;;;;;;;14.00;10.50;;;;;4.69;63.19;102591.69;5071759;28;51101;-69
2022/02/01 03:06:31;;;;;;;;;10.00;9.50;;;;;4.57;63.43;102570.88;5073190;28;49830;-69
2022/02/01 03:08:56;;;;;;;;;8.50;6.00;;;;;4.39;63.24;102542.63;5071940;28;49670;-69
2022/02/01 03:11:21;;;;;;;;;9.75;8.75;;;;;4.70;63.79;102583.09;5073570;28;49791;-69
2022/02/01 03:13:55;;;;;;;;;9.50;8.75;;;;;4.65;64.08;102560.16;5073064;28;49886;-69
2022/02/01 03:21:48;;;;;;;;;4.00;4.00;;;;;4.43;63.98;102514.34;5073397;28;49971;-69
2022/02/01 03:24:13;;;;;;;;;11.75;9.50;;;;;4.60;64.42;102539.00;5071775;28;50504;-69
2022/02/01 03:26:39;;;;;;;;;10.25;9.00;;;;;4.19;64.70;102468.34;5072969;28;49889;-69
2022/02/01 03:29:04;;;;;;;;;9.00;9.00;;;;;4.62;65.12;102542.59;5072866;28;50488;-69
2022/02/01 03:31:29;;;;;;;;;9.25;7.75;;;;;4.76;64.91;102567.03;5073010;27;49787;-69
2022/02/01 03:33:55;;;;;;;;;11.00;9.00;;;;;4.58;65.53;102535.38;5072507;28;51178;-70
2022/02/01 03:36:20;;;;;;;;;12.75;9.50;;;;;4.69;65.19;102541.34;5073263;27;49830;-69
2022/02/01 03:38:47;;;;;;;;;9.50;9.50;;;;;4.75;65.35;102560.03;5072915;27;49810;-69
2022/02/01 03:41:13;;;;;;;;;2.00;2.00;;;;;4.85;65.85;102572.91;5073050;27;49783;-69
2022/02/01 03:43:38;;;;;;;;;5.00;5.00;;;;;4.30;65.45;102483.94;5072615;27;50852;-69
2022/02/01 03:46:03;;;;;;;;;7.50;6.00;;;;;4.86;65.38;102560.00;5072613;28;49715;-70
2022/02/01 03:48:29;;;;;;;;;4.75;4.50;;;;;4.90;66.03;102555.91;5072841;28;50352;-69
2022/02/01 03:50:54;;;;;;;;;6.00;5.50;;;;;5.02;66.16;102553.28;5072717;28;50157;-69
2022/02/01 03:53:20;;;;;;;;;8.75;5.75;;;;;4.74;65.68;102495.78;5072558;28;50242;-69
2022/02/01 03:55:45;;;;;;;;;5.00;5.00;;;;;4.86;65.83;102520.06;5072564;28;49903;-69
2022/02/01 03:58:10;;;;;;;;;12.75;9.00;;;;;4.97;65.86;102523.44;5072532;27;50234;-69
2022/02/01 04:00:36;;;;;;;;;5.50;5.50;;;;;4.78;66.53;102490.00;5072229;28;49938;-69
2022/02/01 04:03:04;;;;;;;;;4.50;4.50;;;;;4.32;66.03;102414.75;5072185;27;50764;-69
2022/02/01 04:05:31;;;;;;;;;8.75;8.00;;;;;4.98;66.60;102520.03;5071059;28;49837;-69
2022/02/01 04:07:56;;;;;;;;;8.50;6.00;;;;;5.06;66.46;102524.09;5072427;28;49847;-69
2022/02/01 04:10:21;;;;;;;;;9.00;9.00;;;;;5.19;66.22;102544.97;5072494;27;49643;-69
2022/02/01 04:12:49;;;;;;;;;7.75;7.25;;;;;5.14;67.11;102528.16;5072186;27;50622;-69
2022/02/01 04:15:16;;;;;;;;;12.25;9.00;;;;;5.22;67.23;102531.31;5071945;27;49802;-69
2022/02/01 04:17:41;;;;;;;;;5.75;5.75;;;;;5.13;67.39;102516.84;5070818;28;49849;-69
2022/02/01 04:20:08;;;;;;;;;10.50;8.50;;;;;5.07;67.31;102500.75;5071062;28;49689;-69
2022/02/01 04:22:33;;;;;;;;;7.50;7.00;;;;;5.13;68.10;102509.03;5072093;28;50518;-70
2022/02/01 04:24:58;;;;;;;;;9.00;8.50;;;;;5.18;69.14;102515.44;5070806;28;49895;-69
2022/02/01 04:29:55;;;;;;;;;9.25;5.50;;;;;5.17;68.95;102511.03;5071740;28;49633;-69
2022/02/01 04:32:20;;;;;;;;;6.00;6.00;;;;;5.23;68.92;102509.66;5071965;27;50583;-69
2022/02/01 04:34:51;;;;;;;;;6.00;6.00;;;;;5.16;69.20;102500.50;5070339;28;49725;-69
2022/02/01 04:37:16;;;;;;;;;7.25;5.25;;;;;5.27;69.43;102520.38;5071817;27;49900;-69
2022/02/01 04:39:41;;;;;;;;;9.50;5.25;;;;;5.34;69.49;102519.13;5070760;28;50073;-69
2022/02/01 04:42:07;;;;;;;;;6.25;5.25;;;;;5.34;69.93;102524.34;5070187;28;55751;-68
2022/02/01 04:44:32;;;;;;;;;9.00;7.00;;;;;5.34;69.69;102529.53;5071482;27;49775;-69
2022/02/01 04:46:57;;;;;;;;;6.25;4.75;;;;;4.78;70.29;102427.53;5071997;27;49871;-69
2022/02/01 04:49:23;;;;;;;;;10.00;6.00;;;;;5.36;69.67;102517.53;5072080;27;49802;-70
2022/02/01 04:51:48;;;;;;;;;6.00;5.50;;;;;5.45;69.74;102536.41;5071470;28;49835;-69
2022/02/01 04:54:13;;;;;;;;;7.25;5.75;;;;;5.18;70.28;102475.47;5070361;28;49873;-69
2022/02/01 04:56:39;;;;;;;;;8.75;6.00;;;;;5.28;70.18;102477.03;5071681;28;49755;-68
2022/02/01 04:59:04;;;;;;;;;5.00;5.00;;;;;5.28;71.10;102469.22;5071505;28;49740;-68
2022/02/01 05:01:38;;;;;;;;;5.50;5.50;;;;;5.26;70.69;102473.41;5071401;28;50627;-69
2022/02/01 05:04:05;;;;;;;;;7.00;5.75;;;;;5.46;70.40;102489.63;5070190;28;49604;-69
2022/02/01 05:06:31;;;;;;;;;7.00;6.00;;;;;5.21;71.05;102440.94;5071373;28;49616;-69
2022/02/01 05:08:56;;;;;;;;;7.00;6.50;;;;;4.88;70.88;102399.66;5071619;28;49637;-68
2022/02/01 05:11:22;;;;;;;;;9.00;6.00;;;;;5.46;70.96;102489.63;5071257;28;50317;-68
2022/02/01 05:16:18;;;;;;;;;9.00;5.75;;;;;5.58;71.51;102527.72;5071446;28;49863;-69
2022/02/01 05:18:50;;;;;;;;;7.50;5.00;;;;;5.42;71.34;102504.94;5071691;28;49605;-69
2022/02/01 05:21:24;;;;;;;;;4.00;3.25;;;;;5.38;71.03;102498.59;5071302;27;49984;-69
2022/02/01 05:23:51;;;;;;;;;9.00;9.00;;;;;5.50;71.75;102495.97;5071378;28;49822;-69
2022/02/01 05:26:19;;;;;;;;;7.50;5.50;;;;;5.52;71.41;102493.47;5069820;28;49687;-70
2022/02/01 05:28:45;;;;;;;;;7.25;5.25;;;;;5.56;72.34;102488.53;5071163;27;49661;-69
2022/02/01 05:31:10;;;;;;;;;4.00;3.25;;;;;5.64;72.05;102513.44;5069290;28;50752;-68
2022/02/01 05:33:36;;;;;;;;;9.75;6.25;;;;;5.46;71.97;102486.13;5071190;28;49748;-68
2022/02/01 05:36:03;;;;;;;;;5.25;5.25;;;;;5.39;72.32;102469.16;5071216;28;49807;-71
2022/02/01 05:38:29;;;;;;;;;8.00;4.75;;;;;5.49;72.15;102473.28;5071229;28;49862;-72
2022/02/01 05:40:55;;;;;;;;;7.25;5.25;;;;;5.50;72.54;102475.13;5069446;28;50328;-68
2022/02/01 05:43:25;;;;;;;;;8.00;6.00;;;;;5.56;72.10;102459.00;5071733;28;49731;-68
2022/02/01 05:45:52;;;;;;;;;9.75;7.50;;;;;5.57;72.80;102448.66;5072789;28;50030;-68
2022/02/01 05:48:19;;;;;;;;;7.00;6.00;;;;;5.50;72.80;102433.44;5071469;28;50082;-69
2022/02/01 05:50:49;;;;;;;;;10.25;5.75;;;;;5.56;72.99;102431.25;5074357;28;50015;-69
2022/02/01 05:53:15;;;;;;;;;4.00;4.00;;;;;5.81;72.99;102464.16;5074575;28;50088;-68
2022/02/01 05:55:41;;;;;;;;;7.00;5.00;;;;;5.77;73.50;102449.09;5074667;28;49729;-69
2022/02/01 05:58:07;;;;;;;;;11.50;5.50;;;;;5.65;73.44;102415.31;5074616;28;49801;-68
2022/02/01 06:00:33;;;;;;;;;5.25;4.00;;;;;5.60;73.34;102385.47;5074196;28;50305;-68
2022/02/01 06:03:00;;;;;;;;;5.00;5.00;;;;;5.61;73.38;102380.34;5074419;28;49719;-68
2022/02/01 06:05:27;;;;;;;;;5.00;4.25;;;;;5.91;73.63;102438.84;5074190;28;49752;-68
2022/02/01 06:07:52;;;;;;;;;5.00;5.00;;;;;5.93;73.67;102442.44;5074536;28;49780;-68
2022/02/01 06:10:17;;;;;;;;;14.50;6.25;;;;;5.77;73.90;102417.84;5074111;28;50216;-68
2022/02/01 06:12:47;;;;;;;;;11.50;5.50;;;;;5.92;74.07;102437.13;5074389;28;49713;-68
2022/02/01 06:15:16;;;;;;;;;6.00;5.50;;;;;5.69;74.09;102396.47;5072774;28;49784;-68
2022/02/01 06:17:41;;;;;;;;;9.00;4.00;;;;;5.94;74.45;102444.25;5080240;28;49573;-68
2022/02/01 06:20:09;;;;;;;;;3.50;3.50;;;;;5.83;74.45;102406.13;5082347;27;51083;-68
2022/02/01 06:22:34;;;;;;;;;5.50;5.50;;;;;5.84;74.10;102400.09;5074931;28;49700;-68
2022/02/01 06:25:01;;;;;;;;;5.25;4.50;;;;;5.84;74.54;102402.72;5073547;28;49765;-68
2022/02/01 06:27:27;;;;;;;;;9.00;6.00;;;;;5.77;74.61;102386.56;5073867;27;49701;-68
2022/02/01 06:29:52;;;;;;;;;5.75;5.75;;;;;5.88;74.14;102407.31;5073080;28;49826;-69
2022/02/01 06:32:17;;;;;;;;;4.50;3.75;;;;;5.99;74.27;102439.38;5073669;28;49916;-67
2022/02/01 06:34:43;;;;;;;;;6.50;5.75;;;;;6.04;75.03;102440.56;5076107;28;49726;-67
2022/02/01 06:37:09;;;;;;;;;13.00;7.00;;;;;5.98;74.93;102421.88;5073625;28;49733;-65
2022/02/01 06:39:34;;;;;;;;;5.25;3.00;;;;;5.99;74.49;102421.13;5073395;28;50209;-66
2022/02/01 06:41:59;;;;;;;;;4.25;2.75;;;;;5.83;74.72;102387.88;5073664;27;49886;-64
2022/02/01 06:44:25;;;;;;;;;4.00;2.75;;;;;6.11;74.42;102450.59;5073159;28;49807;-64
2022/02/01 06:46:51;;;;;;;;;7.00;5.25;;;;;5.98;74.57;102414.06;5072408;28;49633;-65
2022/02/01 06:49:16;;;;;;;;;6.50;5.50;;;;;5.89;74.68;102392.59;5072996;28;49651;-64
2022/02/01 06:51:42;;;;;;;;;8.50;7.50;;;;;6.02;74.80;102410.88;5073093;28;49683;-66
2022/02/01 06:54:08;;;;;;;;;6.75;5.75;;;;;5.85;74.92;102382.75;5071881;28;49800;-70
2022/02/01 06:56:33;;;;;;;;;8.00;5.00;;;;;6.10;74.92;102421.81;5072031;28;49897;-68
2022/02/01 06:59:04;;;;;;;;;16.75;10.50;;;;;5.89;75.13;102374.38;5070773;28;51466;-71
2022/02/01 07:01:30;;;;;;;;;8.75;6.50;;;;;5.92;74.81;102367.66;5073021;28;49790;-78
2022/02/01 07:03:56;;;;;;;;;7.50;5.50;;;;;6.28;74.67;102431.72;5073133;28;49772;-72
2022/02/01 07:06:21;;;;;;;;;9.00;6.00;;;;;6.31;74.19;102431.03;5071269;27;49953;-71
2022/02/01 07:08:49;;;;;;;;;3.75;3.00;;;;;6.35;74.72;102437.31;5072826;27;49731;-72
2022/02/01 07:11:16;;;;;;;;;7.25;7.25;;;;;6.17;74.79;102419.69;5071576;28;49695;-73
2022/02/01 07:13:42;;;;;;;;;7.00;5.75;;;;;6.29;74.55;102417.88;5072656;27;49740;-68
2022/02/01 07:16:09;;;;;;;;;2.75;2.00;;;;;6.28;75.00;102405.66;5073138;27;49792;-73
2022/02/01 07:18:34;;;;;;;;;6.50;5.25;;;;;6.13;75.01;102378.56;5072537;28;49944;-68
2022/02/01 07:21:00;;;;;;;;;8.75;4.75;;;;;6.45;75.30;102424.97;5072757;28;49766;-65
2022/02/01 07:23:26;;;;;;;;;6.50;5.00;;;;;6.25;75.16;102401.91;5069243;28;49873;-68
2022/02/01 07:25:56;;;;;;;;;5.75;5.25;;;;;6.46;75.23;102428.47;5068269;27;49942;-68
2022/02/01 07:28:24;;;;;;;;;7.50;5.75;;;;;6.54;75.03;102437.69;5071308;28;50785;-68
2022/02/01 07:30:50;;;;;;;;;2.00;1.00;;;;;6.54;75.54;102443.81;5071366;28;49855;-68
2022/02/01 07:33:15;;;;;;;;;6.75;6.75;;;;;6.56;76.15;102428.25;5071935;27;49854;-68
2022/02/01 07:35:42;;;;;;;;;6.25;3.00;;;;;6.59;75.73;102431.06;5070350;28;49853;-67
2022/02/01 07:38:08;;;;;;;;;9.00;5.00;;;;;6.47;75.80;102417.25;5071402;27;49693;-66
2022/02/01 07:40:34;;;;;;;;;5.50;5.00;;;;;6.54;76.14;102419.44;5076216;27;50066;-66
2022/02/01 07:43:01;;;;;;;;;5.50;4.25;;;;;6.47;76.96;102394.69;5071934;28;49796;-67
2022/02/01 07:45:29;;;;;;;;;2.50;2.00;;;;;6.47;76.01;102372.91;5071274;28;49671;-66
2022/02/01 07:48:00;;;;;;;;;6.75;6.75;;;;;6.48;76.98;102359.06;5072176;28;51381;-69
2022/02/01 07:50:27;;;;;;;;;8.25;4.00;;;;;6.65;77.73;102389.69;5071693;27;49848;-66
2022/02/01 07:52:52;;;;;;;;;8.00;5.50;;;;;6.68;76.33;102386.41;5068079;28;49712;-68
2022/02/01 07:55:18;;;;;;;;;10.00;7.00;;;;;6.74;76.94;102385.03;5087014;27;49733;-68
2022/02/01 07:57:46;;;;;;;;;6.25;5.25;;;;;6.50;76.19;102334.84;5077529;27;49833;-66
2022/02/01 08:00:12;;;;;;;;;8.25;5.00;;;;;6.66;77.40;102357.59;5075763;27;50037;-67
2022/02/01 08:02:38;;;;;;;;;7.00;5.25;;;;;6.77;76.10;102377.44;5073663;28;49966;-66
2022/02/01 08:05:04;;;;;;;;;7.25;6.25;;;;;6.77;76.23;102358.25;5078963;28;49341;-67
2022/02/01 08:07:30;;;;;;;;;5.00;1.75;;;;;6.63;76.49;102335.59;5079176;28;49912;-67
2022/02/01 08:09:59;;;;;;;;;2.75;2.75;;;;;6.71;76.50;102340.50;5068082;28;49774;-66
2022/02/01 08:23:00;;;;;;;;;5.75;5.75;;;;;6.90;76.85;102337.31;5071964;28;49777;-67
2022/02/01 08:25:24;;;;;;;;;5.00;5.00;;;;;6.92;76.68;102334.78;5071108;28;49798;-70
2022/02/01 08:27:52;;;;;;;;;4.50;4.25;;;;;7.11;75.53;102369.94;5083761;27;50307;-69
2022/02/01 08:30:18;;;;;;;;;12.00;5.25;;;;;7.08;76.07;102341.03;5085934;27;49617;-70
2022/02/01 08:32:44;;;;;;;;;9.00;7.00;;;;;7.15;75.63;102353.66;5086190;28;49332;-69
2022/02/01 08:35:09;;;;;;;;;3.00;3.00;;;;;7.15;75.64;102343.19;5077171;28;49872;-68
2022/02/01 08:37:35;;;;;;;;;5.25;2.50;;;;;7.20;76.15;102338.25;5080140;28;49650;-69
2022/02/01 08:40:01;;;;;;;;;2.75;2.00;;;;;7.05;75.79;102324.28;5077618;28;49660;-67
2022/02/01 08:42:27;;;;;;;;;7.50;4.75;;;;;7.21;76.24;102324.38;5079426;27;49668;-69
2022/02/01 08:44:53;;;;;;;;;1.50;1.50;;;;;7.23;75.85;102320.13;5070446;27;50231;-69
2022/02/01 08:47:19;;;;;;;;;4.75;4.75;;;;;7.31;76.57;102321.47;5070825;27;51014;-68
2022/02/01 08:49:44;;;;;;;;;2.75;2.75;;;;;7.31;76.44;102324.09;5070921;28;49690;-68
2022/02/01 08:52:14;;;;;;;;;3.00;3.00;;;;;7.43;76.46;102323.91;5073947;28;50524;-69
2022/02/01 08:54:40;;;;;;;;;10.00;4.00;;;;;7.37;76.71;102310.50;5070727;28;49945;-67
2022/02/01 08:57:22;;;;;;;;;5.25;4.50;;;;;7.31;76.37;102302.28;5073686;27;49654;-73
2022/02/01 08:59:52;;;;;;;;;2.50;2.50;;;;;7.32;76.50;102291.94;5081650;28;49246;-72
2022/02/01 09:02:27;;;;;;;;;2.75;2.50;;;;;7.45;77.32;102315.38;5082913;28;49727;-67
2022/02/01 09:04:54;;;;;;;;;9.00;6.00;;;;;7.43;76.65;102290.88;5079855;27;49751;-67
2022/02/01 09:07:19;;;;;;;;;5.75;4.00;;;;;7.36;77.04;102279.97;5073208;27;50133;-69
2022/02/01 09:09:45;;;;;;;;;5.00;5.00;;;;;7.61;76.85;102308.38;5069832;28;49800;-64
2022/02/01 09:12:11;;;;;;;;;5.00;3.00;;;;;7.44;76.81;102253.47;5068291;27;50171;-76
2022/02/01 09:14:37;;;;;;;;;13.50;6.00;;;;;7.57;76.98;102259.38;5076741;27;49745;-68
2022/02/01 09:17:03;;;;;;;;;2.00;2.00;;;;;7.72;76.41;102282.06;5075112;27;49802;-68
2022/02/01 09:19:30;;;;;;;;;5.00;5.00;;;;;7.59;75.85;102255.13;5084331;27;49771;-65
2022/02/01 09:21:56;;;;;;;;;7.50;5.25;;;;;7.65;76.46;102264.25;5079286;28;49846;-68
2022/02/01 09:24:22;;;;;;;;;9.25;5.25;;;;;7.58;76.74;102243.78;5076535;27;49665;-66
2022/02/01 09:26:51;;;;;;;;;11.00;7.00;;;;;7.91;76.21;102285.69;5084085;27;51006;-68
2022/02/01 09:29:18;;;;;;;;;8.50;6.00;;;;;7.82;75.54;102254.72;5086224;27;49257;-66
2022/02/01 09:31:43;;;;;;;;;8.00;5.75;;;;;7.92;75.20;102257.03;5088009;27;49849;-66
2022/02/01 09:34:09;;;;;;;;;3.00;3.00;;;;;7.92;75.98;102257.03;5088285;27;49759;-64
2022/02/01 09:36:34;;;;;;;;;7.50;6.25;;;;;8.14;75.65;102273.91;5084216;28;50274;-64
2022/02/01 09:39:00;;;;;;;;;7.00;6.00;;;;;8.09;76.23;102264.88;5082801;27;50253;-66
2022/02/01 09:41:26;;;;;;;;;4.50;2.00;;;;;8.04;75.28;102242.00;5083419;28;49758;-65
2022/02/01 09:43:54;;;;;;;;;6.50;4.50;;;;;8.22;75.80;102260.44;5082933;28;49307;-63
2022/02/01 09:46:21;;;;;;;;;3.00;3.00;;;;;8.22;75.11;102241.22;5077538;28;50752;-65
2022/02/01 09:48:47;;;;;;;;;7.25;6.00;;;;;8.17;75.32;102247.91;5080060;27;49738;-67
2022/02/01 09:51:12;;;;;;;;;2.00;2.00;;;;;8.23;75.08;102262.22;5078998;28;49815;-67
2022/02/01 09:53:38;;;;;;;;;3.75;2.25;;;;;8.25;75.28;102250.13;5080243;28;49823;-68
2022/02/01 09:56:05;;;;;;;;;3.00;1.75;;;;;8.40;74.88;102271.03;5073267;28;49882;-67
2022/02/01 09:58:33;;;;;;;;;4.75;4.75;;;;;8.45;75.36;102269.53;5068985;28;49896;-68
2022/02/01 10:01:02;;;;;;;;;6.00;6.00;;;;;8.52;74.27;102274.28;5075410;28;49632;-68
2022/02/01 10:03:27;;;;;;;;;9.25;7.00;;;;;8.42;74.71;102242.31;5073751;28;49801;-68
2022/02/01 10:06:03;;;;;;;;;6.00;6.00;;;;;8.49;74.74;102270.59;5085480;27;50646;-66
2022/02/01 10:08:28;;;;;;;;;3.00;3.00;;;;;8.46;74.41;102258.25;5082067;28;49374;-64
2022/02/01 10:10:54;;;;;;;;;2.00;2.00;;;;;8.54;75.52;102282.22;5087532;28;49413;-64
2022/02/01 10:13:21;;;;;;;;;6.25;4.00;;;;;8.49;74.94;102270.59;5079280;28;49830;-63
2022/02/01 10:15:54;;;;;;;;;5.25;4.00;;;;;8.47;75.19;102273.13;5079884;28;50866;-66
2022/02/01 10:18:26;;;;;;;;;3.00;3.00;;;;;8.56;74.69;102280.56;5075097;28;49669;-62
2022/02/01 10:20:52;;;;;;;;;6.50;4.25;;;;;8.43;74.67;102250.25;5070236;28;49985;-64
2022/02/01 10:23:24;;;;;;;;;5.25;3.25;;;;;8.57;74.76;102271.91;5069294;28;49862;-65
2022/02/01 10:26:12;;;;;;;;;4.75;2.75;;;;;8.56;75.03;102268.38;5069525;27;49780;-67
2022/02/01 10:29:07;;;;;;;;;3.00;3.00;;;;;8.57;74.46;102262.31;5071139;28;49901;-70
2022/02/01 10:31:46;;;;;;;;;6.00;4.25;;;;;8.60;74.41;102267.75;5062192;28;50069;-69
2022/02/01 10:35:00;;;;;;;;;2.25;2.25;;;;;8.62;74.86;102248.59;5071274;28;49591;-67
2022/02/01 10:37:01;;;;;;;;;4.25;2.50;;;;;8.53;74.25;102222.84;5070771;28;49976;-69
2022/02/01 10:39:29;;;;;;;;;5.25;5.25;;;;;8.50;74.52;102217.44;5071781;28;49793;-69
2022/02/01 10:41:56;;;;;;;;;6.75;4.25;;;;;8.76;74.10;102243.25;5082392;28;49604;-70
2022/02/01 10:44:23;;;;;;;;;2.50;1.75;;;;;8.64;74.67;102202.44;5085342;28;49561;-71
2022/02/01 10:46:51;;;;;;;;;3.25;3.00;;;;;8.71;74.15;102207.19;5083308;28;50068;-72
2022/02/01 10:49:27;;;;;;;;;3.25;3.25;;;;;8.84;74.14;102223.59;5081385;27;49778;-73
2022/02/01 10:52:03;;;;;;;;;4.75;4.75;;;;;8.40;73.55;102124.47;5084339;27;49322;-77
2022/02/01 10:54:31;;;;;;;;;3.00;3.00;;;;;8.97;74.13;102225.09;5077000;27;49723;-75
2022/02/01 10:56:56;;;;;;;;;2.75;2.50;;;;;8.85;73.45;102187.81;5071304;28;49853;-70
2022/02/01 10:59:23;;;;;;;;;6.25;3.75;;;;;8.84;73.80;102165.97;5072606;28;49634;-70
2022/02/01 11:01:49;;;;;;;;;2.75;2.75;;;;;9.11;73.44;102200.50;5066929;28;49948;-71
2022/02/01 11:04:19;;;;;;;;;3.25;3.25;;;;;9.16;73.61;102205.97;5071949;28;49733;-72
2022/02/01 11:06:44;;;;;;;;;3.00;3.00;;;;;9.12;73.67;102178.72;5073600;28;52149;-72
2022/02/01 11:09:10;;;;;;;;;3.00;2.75;;;;;9.14;74.01;102174.44;5072619;27;49815;-73
2022/02/01 11:11:50;;;;;;;;;3.50;3.25;;;;;9.03;73.73;102138.97;5070769;28;49900;-77
2022/02/01 11:14:25;;;;;;;;;5.50;3.00;;;;;9.31;73.92;102203.22;5099755;27;50094;-72
2022/02/01 11:17:11;;;;;;;;;2.75;1.75;;;;;9.27;73.62;102164.59;5071156;28;52424;-67
2022/02/01 11:19:56;;;;;;;;;7.50;4.00;;;;;9.50;73.10;102187.53;5072613;27;49866;-71
2022/02/01 11:22:35;;;;;;;;;7.00;6.00;;;;;9.42;73.33;102158.34;5072872;28;49830;-69
2022/02/01 11:25:20;;;;;;;;;3.00;3.00;;;;;9.56;74.06;102190.47;5073078;27;49969;-70
2022/02/01 11:28:31;;;;;;;;;3.25;2.25;;;;;9.56;73.00;102182.59;5072511;28;49729;-68
2022/02/01 11:30:52;;;;;;;;;8.00;6.50;;;;;9.44;73.52;102143.56;5072090;27;50084;-70
2022/02/01 11:33:18;;;;;;;;;8.25;4.50;;;;;9.52;73.53;102166.63;5072630;28;49605;-73
2022/02/01 11:35:44;;;;;;;;;6.25;6.00;;;;;9.63;72.78;102178.53;5072829;27;49933;-74
2022/02/01 11:38:21;;;;;;;;;2.25;2.25;;;;;9.76;73.42;102178.28;5072472;27;50640;-75
2022/02/01 11:40:57;;;;;;;;;2.75;2.25;;;;;9.60;72.73;102157.41;5072150;28;49901;-77
2022/02/01 11:43:25;;;;;;;;;3.25;3.00;;;;;9.60;72.97;102126.84;5074548;28;49768;-66
2022/02/01 11:45:56;;;;;;;;;5.75;2.75;;;;;9.85;73.29;102170.84;5071143;28;49767;-66
2022/02/01 11:48:30;;;;;;;;;3.00;2.25;;;;;9.70;72.95;102129.06;5072257;28;50802;-72
2022/02/01 11:50:59;;;;;;;;;6.50;3.00;;;;;9.62;72.61;102111.19;5072159;28;49770;-68
2022/02/01 11:53:29;;;;;;;;;6.00;3.50;;;;;9.83;72.95;102142.75;5070995;28;49794;-70
2022/02/01 11:55:55;;;;;;;;;3.50;3.50;;;;;9.83;72.86;102147.97;5072585;28;49671;-68
2022/02/01 11:58:41;;;;;;;;;4.00;3.00;;;;;9.86;72.44;102154.28;5072028;27;49899;-66
2022/02/01 12:01:23;;;;;;;;;5.75;3.50;;;;;9.93;72.71;102164.22;5066591;28;49942;-67
2022/02/01 12:04:10;;;;;;;;;4.50;4.50;;;;;9.82;72.59;102140.94;5072144;28;50013;-68
2022/02/01 12:06:41;;;;;;;;;4.00;2.50;;;;;9.89;73.09;102153.53;5071895;27;49708;-68
2022/02/01 12:09:11;;;;;;;;;4.50;3.25;;;;;9.68;73.52;102133.34;5071942;27;49928;-69
2022/02/01 12:11:39;;;;;;;;;7.25;5.75;;;;;9.70;74.58;102144.81;5071860;27;49708;-70
2022/02/01 12:14:05;;;;;;;;;6.25;4.75;;;;;9.66;74.20;102144.59;5071831;28;49728;-69
2022/02/01 12:16:30;;;;;;;;;6.00;4.00;;;;;9.51;74.10;102125.53;5072025;28;49775;-66
2022/02/01 12:19:08;;;;;;;;;4.50;4.50;;;;;9.64;74.54;102136.66;5071854;28;50723;-69
2022/02/01 12:21:58;;;;;;;;;7.00;5.25;;;;;9.61;75.85;102138.25;5055583;28;49632;-67
2022/02/01 12:24:26;;;;;;;;;7.00;3.00;;;;;9.40;75.73;102093.56;5068119;28;49818;-70
2022/02/01 12:26:52;;;;;;;;;4.75;4.00;;;;;9.56;75.63;102130.16;5070598;28;50002;-67
2022/02/01 12:29:17;;;;;;;;;7.25;5.75;;;;;9.61;75.49;102125.13;5069973;27;50045;-67
2022/02/01 12:31:43;;;;;;;;;8.50;6.00;;;;;9.62;75.91;102119.06;5070124;27;49724;-70
2022/02/01 12:34:12;;;;;;;;;10.75;8.25;;;;;9.49;76.07;102098.34;5070465;27;49791;-71
2022/02/01 12:36:41;;;;;;;;;6.75;6.00;;;;;9.53;76.41;102102.91;5070516;28;49877;-69
2022/02/01 12:39:14;;;;;;;;;7.75;6.00;;;;;9.69;76.79;102131.63;5069958;27;51056;-67
2022/02/01 12:41:43;;;;;;;;;6.00;3.75;;;;;9.68;76.63;102119.34;5070725;27;50019;-72
2022/02/01 12:46:55;;;;;;;;;4.50;4.50;;;;;9.66;76.78;102110.53;5071803;28;49835;-68
2022/02/01 12:49:43;;;;;;;;;8.00;8.00;;;;;9.77;76.24;102111.00;5071311;27;49887;-69
2022/02/01 12:52:26;;;;;;;;;4.00;4.00;;;;;9.77;77.54;102103.13;5066304;28;49855;-67
2022/02/01 12:55:14;;;;;;;;;7.50;7.50;;;;;9.78;77.15;102097.06;5070140;28;50245;-68
2022/02/01 12:57:42;;;;;;;;;6.00;3.75;;;;;9.24;77.15;101999.34;5070071;27;49782;-71
2022/02/01 13:00:16;;;;;;;;;9.75;9.25;;;;;9.84;77.06;102097.31;5070886;27;50641;-67
2022/02/01 13:02:42;;;;;;;;;10.25;7.00;;;;;9.85;77.37;102092.16;5071404;28;49794;-68
2022/02/01 13:05:12;;;;;;;;;6.25;4.00;;;;;9.86;77.11;102098.31;5069457;28;49804;-68
2022/02/01 13:15:53;;;;;;;;;8.00;3.75;;;;;9.99;76.42;102075.31;5071025;28;49701;-68
2022/02/01 13:20:56;;;;;;;;;5.25;3.00;;;;;10.00;76.69;102044.72;5070636;28;50167;-68